Time;durP1;ratioP1;P1;durP2;ratioP2;P2;SDS_P1;SDS_P2;PMS_P1;PMS_P2;Temp;Humidity;BMP_temperature;BMP_pressure;BME280_temperature;BME280_humidity;BME280_pressure;Samples;Min_cycle;Max_cycle;Signal;HPM_P1;HPM_P2
2022/06/15 00:01:22;;;;;;;7.45;4.70;;;26.00;99.90;;;;;;4992748;28;20057;-59
2022/06/15 00:03:48;;;;;;;7.22;4.60;;;26.00;99.90;;;;;;4990259;28;20042;-59
2022/06/15 00:06:23;;;;;;;5.38;4.10;;;25.90;99.90;;;;;;4989241;28;20029;-59
2022/06/15 00:08:52;;;;;;;7.43;3.90;;;25.90;99.90;;;;;;4989604;28;20034;-59
2022/06/15 00:11:26;;;;;;;6.97;3.97;;;25.80;99.90;;;;;;4989421;28;20466;-59
2022/06/15 00:13:53;;;;;;;7.03;4.00;;;25.90;99.90;;;;;;4973980;28;20022;-58
2022/06/15 00:16:21;;;;;;;6.15;3.58;;;25.80;99.90;;;;;;4993318;28;20084;-59
2022/06/15 00:18:47;;;;;;;5.55;3.38;;;25.70;99.90;;;;;;4991399;28;20113;-59
2022/06/15 00:21:15;;;;;;;6.18;3.67;;;25.70;99.90;;;;;;4987095;28;20034;-59
2022/06/15 00:23:42;;;;;;;6.15;3.58;;;25.50;99.90;;;;;;4988930;28;20030;-58
2022/06/15 00:26:08;;;;;;;5.32;3.47;;;25.50;99.90;;;;;;4989068;28;20027;-59
2022/06/15 00:28:34;;;;;;;6.57;4.20;;;25.50;99.90;;;;;;4991861;28;20101;-58
2022/06/15 00:31:01;;;;;;;4.75;3.30;;;25.30;99.90;;;;;;4990901;28;20027;-59
2022/06/15 00:33:28;;;;;;;4.70;3.38;;;25.30;99.90;;;;;;4988799;28;20454;-59
2022/06/15 00:36:06;;;;;;;5.80;3.58;;;25.30;99.90;;;;;;4988616;28;20117;-58
2022/06/15 00:38:35;;;;;;;8.48;3.60;;;25.30;99.90;;;;;;4988646;28;20018;-59
2022/06/15 00:41:02;;;;;;;10.30;3.85;;;25.30;99.90;;;;;;4989102;28;20019;-59
2022/06/15 00:43:29;;;;;;;5.55;3.53;;;25.10;99.90;;;;;;4991114;28;20046;-59
2022/06/15 00:45:55;;;;;;;6.35;3.60;;;25.10;99.90;;;;;;4990294;28;20041;-59
2022/06/15 00:48:21;;;;;;;6.70;3.30;;;25.10;99.90;;;;;;4988719;28;20117;-59
2022/06/15 00:50:47;;;;;;;6.38;3.50;;;25.10;99.90;;;;;;4988096;28;20563;-59
2022/06/15 00:53:12;;;;;;;7.13;3.50;;;25.20;99.90;;;;;;4988691;28;20081;-57
2022/06/15 00:55:38;;;;;;;7.13;3.65;;;25.30;99.90;;;;;;4990705;28;20047;-59
2022/06/15 00:58:08;;;;;;;5.53;3.17;;;25.30;99.90;;;;;;4990919;28;20117;-58
2022/06/15 01:00:35;;;;;;;6.82;3.45;;;25.30;99.90;;;;;;4988566;28;20472;-59
2022/06/15 01:03:00;;;;;;;5.18;3.17;;;25.30;99.90;;;;;;4986766;28;20041;-59
2022/06/15 01:05:36;;;;;;;8.32;3.42;;;25.30;99.90;;;;;;4988436;28;20027;-59
2022/06/15 01:08:16;;;;;;;5.57;3.10;;;25.20;99.90;;;;;;4988673;28;20259;-57
2022/06/15 01:10:52;;;;;;;7.25;3.35;;;25.10;99.90;;;;;;4989728;28;20050;-59
2022/06/15 01:13:20;;;;;;;6.22;3.55;;;25.00;99.90;;;;;;4988264;28;20039;-58
2022/06/15 01:16:08;;;;;;;5.28;3.40;;;25.00;99.90;;;;;;4988531;28;20035;-59
2022/06/15 01:18:48;;;;;;;5.43;3.50;;;24.90;99.90;;;;;;4930853;29;20096;-59
2022/06/15 01:21:23;;;;;;;7.00;3.60;;;24.80;99.90;;;;;;4931373;29;20428;-58
2022/06/15 01:24:28;;;;;;;6.93;3.70;;;24.80;99.90;;;;;;4930678;29;20157;-59
2022/06/15 01:27:19;;;;;;;7.68;3.65;;;24.70;99.90;;;;;;4934458;29;20039;-58
2022/06/15 01:30:17;;;;;;;8.43;3.75;;;24.80;99.90;;;;;;4934752;29;20051;-59
2022/06/15 01:33:01;;;;;;;5.97;3.55;;;24.70;99.90;;;;;;4934936;29;20032;-59
2022/06/15 01:35:44;;;;;;;6.60;3.58;;;24.80;99.90;;;;;;4934747;28;20128;-59
2022/06/15 01:38:33;;;;;;;6.70;3.60;;;24.80;99.90;;;;;;4935183;29;20031;-57
2022/06/15 01:41:17;;;;;;;6.13;3.33;;;24.80;99.90;;;;;;4920864;29;20027;-58
2022/06/15 01:44:08;;;;;;;6.03;3.40;;;24.80;99.90;;;;;;4934833;29;20416;-59
2022/06/15 01:46:38;;;;;;;5.15;3.33;;;24.70;99.90;;;;;;4926199;29;20052;-58
2022/06/15 01:49:06;;;;;;;6.20;3.40;;;24.60;99.90;;;;;;4933513;29;20047;-59
2022/06/15 01:51:38;;;;;;;6.97;3.60;;;24.70;99.90;;;;;;4934900;29;20027;-59
2022/06/15 01:54:10;;;;;;;8.70;3.85;;;24.70;99.90;;;;;;4934187;29;20024;-58
2022/06/15 01:56:48;;;;;;;7.13;3.70;;;24.60;99.90;;;;;;4985145;28;20587;-59
2022/06/15 01:59:25;;;;;;;7.95;3.10;;;24.60;99.90;;;;;;4991850;28;20026;-59
2022/06/15 02:02:28;;;;;;;6.80;3.30;;;24.60;99.90;;;;;;4976688;28;20089;-59
2022/06/15 02:05:26;;;;;;;7.28;3.63;;;24.50;99.90;;;;;;4977006;28;20045;-59
2022/06/15 02:07:57;;;;;;;7.88;3.95;;;24.60;99.90;;;;;;4976272;28;20027;-58
2022/06/15 02:10:40;;;;;;;6.22;3.30;;;24.60;99.90;;;;;;4994810;28;20022;-59
2022/06/15 02:13:17;;;;;;;6.55;3.20;;;24.50;99.90;;;;;;4993879;28;20061;-58
2022/06/15 02:15:47;;;;;;;7.63;3.85;;;24.40;99.90;;;;;;4991319;28;20073;-59
2022/06/15 02:18:18;;;;;;;8.52;3.63;;;24.40;99.90;;;;;;4991425;28;20377;-59
2022/06/15 02:20:50;;;;;;;7.05;3.67;;;24.30;99.90;;;;;;4991135;28;20049;-59
2022/06/15 02:23:18;;;;;;;5.80;3.45;;;24.20;99.90;;;;;;4989512;28;20031;-58
2022/06/15 02:25:49;;;;;;;5.80;3.28;;;24.20;99.90;;;;;;4991402;28;20084;-59
2022/06/15 02:28:17;;;;;;;8.43;3.45;;;24.30;99.90;;;;;;4995170;28;20104;-59
2022/06/15 02:30:43;;;;;;;6.03;3.50;;;24.30;99.90;;;;;;4991211;28;20026;-59
2022/06/15 02:33:31;;;;;;;8.27;3.65;;;24.30;99.90;;;;;;4990588;28;20517;-59
2022/06/15 02:35:58;;;;;;;9.23;3.83;;;24.20;99.90;;;;;;4990935;28;20080;-59
2022/06/15 02:38:25;;;;;;;4.03;3.20;;;24.20;99.90;;;;;;4990880;28;20057;-58
2022/06/15 02:40:50;;;;;;;8.48;3.80;;;24.20;99.90;;;;;;4991454;28;20019;-59
2022/06/15 02:43:20;;;;;;;6.53;3.35;;;24.10;99.90;;;;;;4994833;28;20407;-59
2022/06/15 02:45:47;;;;;;;6.82;3.60;;;24.10;99.90;;;;;;4992524;28;20030;-58
2022/06/15 02:48:15;;;;;;;6.70;3.25;;;24.20;99.90;;;;;;4990609;28;20484;-59
2022/06/15 02:50:50;;;;;;;6.68;3.65;;;24.10;99.90;;;;;;4991353;28;20038;-58
2022/06/15 02:53:20;;;;;;;7.32;3.25;;;24.10;99.90;;;;;;4990853;28;20018;-59
2022/06/15 02:55:48;;;;;;;5.05;3.17;;;24.10;99.90;;;;;;4991346;28;20117;-59
2022/06/15 02:58:27;;;;;;;6.07;3.40;;;24.00;99.90;;;;;;4994358;28;20088;-59
2022/06/15 03:00:53;;;;;;;6.78;3.45;;;24.00;99.90;;;;;;4993510;28;20109;-59
2022/06/15 03:03:22;;;;;;;8.93;3.55;;;23.90;99.90;;;;;;4990626;28;20048;-58
2022/06/15 03:05:51;;;;;;;9.00;3.97;;;24.00;99.90;;;;;;4990517;28;20030;-57
2022/06/15 03:08:18;;;;;;;6.72;3.58;;;23.90;99.90;;;;;;4990549;28;20045;-59
2022/06/15 03:10:44;;;;;;;6.65;3.65;;;23.80;99.90;;;;;;4991862;28;20113;-58
2022/06/15 03:13:11;;;;;;;7.00;3.80;;;23.70;99.90;;;;;;4993725;28;20495;-59
2022/06/15 03:15:38;;;;;;;6.82;3.58;;;23.70;99.90;;;;;;4990064;28;20105;-59
2022/06/15 03:18:04;;;;;;;8.07;3.72;;;23.70;99.90;;;;;;4990248;28;20030;-59
2022/06/15 03:20:30;;;;;;;10.60;4.00;;;23.70;99.90;;;;;;4990150;28;20379;-59
2022/06/15 03:22:56;;;;;;;8.93;3.88;;;23.70;99.90;;;;;;4990341;28;20082;-57
2022/06/15 03:25:22;;;;;;;8.75;3.70;;;23.70;99.90;;;;;;4993390;28;20038;-59
2022/06/15 03:27:48;;;;;;;6.82;3.35;;;23.70;99.90;;;;;;4990788;28;20033;-58
2022/06/15 03:30:14;;;;;;;6.72;3.60;;;23.70;99.90;;;;;;4989677;28;20026;-59
2022/06/15 03:32:40;;;;;;;9.10;3.60;;;23.70;99.90;;;;;;4990149;28;20030;-58
2022/06/15 03:35:06;;;;;;;7.68;3.67;;;23.60;99.90;;;;;;4990157;28;20126;-59
2022/06/15 03:37:33;;;;;;;7.68;3.78;;;23.60;99.90;;;;;;4992304;28;20395;-58
2022/06/15 03:39:58;;;;;;;8.30;3.55;;;23.70;99.90;;;;;;4991438;28;20406;-59
2022/06/15 03:42:26;;;;;;;9.07;3.40;;;23.70;99.90;;;;;;4989743;28;20038;-59
2022/06/15 03:44:55;;;;;;;6.05;3.30;;;23.60;99.90;;;;;;4989543;28;20446;-58
2022/06/15 03:47:21;;;;;;;8.93;3.45;;;23.60;99.90;;;;;;4989563;28;20114;-59
2022/06/15 03:49:52;;;;;;;6.95;4.00;;;23.60;99.90;;;;;;4990493;28;20050;-58
2022/06/15 03:52:20;;;;;;;8.02;4.25;;;23.50;99.90;;;;;;4989619;28;20109;-58
2022/06/15 03:54:46;;;;;;;8.40;3.53;;;23.50;99.90;;;;;;4988692;28;20054;-59
2022/06/15 03:57:14;;;;;;;8.45;3.72;;;23.60;99.90;;;;;;4989750;28;20176;-58
2022/06/15 03:59:40;;;;;;;8.48;3.60;;;23.50;99.90;;;;;;4989025;28;20052;-59
2022/06/15 04:02:06;;;;;;;7.40;3.83;;;23.30;99.90;;;;;;4989773;28;20424;-59
2022/06/15 04:04:32;;;;;;;7.53;3.83;;;23.30;99.90;;;;;;4991702;28;20042;-58
2022/06/15 04:06:59;;;;;;;6.93;3.58;;;23.30;99.90;;;;;;4990999;28;20018;-58
2022/06/15 04:09:25;;;;;;;7.47;3.55;;;23.30;99.90;;;;;;4989099;28;20407;-59
2022/06/15 04:12:08;;;;;;;8.07;3.42;;;23.30;99.90;;;;;;4989393;28;20018;-58
2022/06/15 04:14:35;;;;;;;12.35;3.97;;;23.30;99.90;;;;;;4988956;28;20089;-59
2022/06/15 04:17:02;;;;;;;7.78;3.50;;;23.20;99.90;;;;;;4988475;28;20022;-59
2022/06/15 04:19:31;;;;;;;7.10;3.78;;;23.10;99.90;;;;;;4991679;28;20037;-59
2022/06/15 04:21:57;;;;;;;7.32;3.42;;;23.00;99.90;;;;;;4990708;28;20491;-58
2022/06/15 04:24:26;;;;;;;8.00;3.70;;;23.10;99.90;;;;;;4989133;28;20042;-58
2022/06/15 04:26:52;;;;;;;6.60;3.92;;;23.10;99.90;;;;;;4989139;28;20019;-58
2022/06/15 04:29:20;;;;;;;9.88;3.92;;;23.10;99.90;;;;;;4988859;28;20026;-59
2022/06/15 04:31:46;;;;;;;11.70;4.18;;;23.10;99.90;;;;;;4989719;28;20026;-58
2022/06/15 04:34:12;;;;;;;10.32;3.80;;;23.00;99.90;;;;;;4992540;28;20019;-58
2022/06/15 04:36:40;;;;;;;7.95;3.60;;;23.00;99.90;;;;;;4989282;28;20034;-59
2022/06/15 04:39:08;;;;;;;8.57;3.75;;;23.00;99.90;;;;;;4988762;28;20365;-58
2022/06/15 04:41:36;;;;;;;8.00;3.83;;;22.90;99.90;;;;;;4988329;28;20105;-59
2022/06/15 04:44:03;;;;;;;6.38;3.47;;;22.80;99.90;;;;;;4988734;28;20046;-59
2022/06/15 04:46:30;;;;;;;7.90;3.67;;;22.90;99.90;;;;;;4991647;28;20495;-59
2022/06/15 04:48:56;;;;;;;7.05;4.03;;;22.80;99.90;;;;;;4990271;28;20046;-59
2022/06/15 04:51:27;;;;;;;10.13;3.88;;;22.90;99.90;;;;;;4988752;28;20046;-58
2022/06/15 04:53:54;;;;;;;13.30;4.60;;;22.90;99.90;;;;;;4988405;28;20030;-59
2022/06/15 04:56:21;;;;;;;7.35;4.10;;;22.80;99.90;;;;;;4988264;28;20042;-59
2022/06/15 04:58:47;;;;;;;7.80;3.85;;;22.80;99.90;;;;;;4988541;28;20042;-58
2022/06/15 05:01:14;;;;;;;11.50;4.10;;;22.80;99.90;;;;;;4992472;28;20033;-58
2022/06/15 05:03:40;;;;;;;11.98;4.90;;;22.80;99.90;;;;;;4988384;28;20388;-59
2022/06/15 05:06:41;;;;;;;10.32;4.50;;;22.80;99.90;;;;;;4988489;28;20022;-58
2022/06/15 05:09:11;;;;;;;7.75;4.28;;;22.80;99.90;;;;;;4985468;28;20146;-59
2022/06/15 05:11:37;;;;;;;9.30;4.43;;;22.80;99.90;;;;;;4987526;28;20019;-59
2022/06/15 05:14:03;;;;;;;11.10;4.47;;;22.80;99.90;;;;;;4988387;28;20109;-59
2022/06/15 05:16:29;;;;;;;9.52;4.32;;;22.70;99.90;;;;;;4991127;28;20027;-59
2022/06/15 05:18:55;;;;;;;9.07;4.20;;;22.80;99.90;;;;;;4989775;28;20368;-59
2022/06/15 05:21:21;;;;;;;9.18;4.20;;;22.80;99.90;;;;;;4988324;28;20031;-59
2022/06/15 05:23:47;;;;;;;9.70;4.32;;;22.80;99.90;;;;;;4988186;28;20064;-58
2022/06/15 05:26:13;;;;;;;8.82;4.07;;;23.00;99.90;;;;;;4988225;28;20050;-59
2022/06/15 05:28:46;;;;;;;12.07;4.70;;;23.10;99.90;;;;;;4989982;28;20022;-58
2022/06/15 05:31:18;;;;;;;7.78;4.22;;;23.10;99.90;;;;;;4991553;28;20034;-59
2022/06/15 05:33:45;;;;;;;10.05;4.28;;;23.20;99.90;;;;;;4984005;28;20146;-59
2022/06/15 05:36:16;;;;;;;10.00;4.10;;;23.20;99.90;;;;;;4983813;28;20022;-58
2022/06/15 05:38:41;;;;;;;8.80;4.25;;;23.30;99.90;;;;;;4984159;28;20038;-66
2022/06/15 05:41:08;;;;;;;8.13;4.10;;;22.70;99.90;;;;;;4981631;28;20022;-65
2022/06/15 05:43:36;;;;;;;7.53;4.40;;;22.40;99.90;;;;;;4985461;28;20038;-64
2022/06/15 05:46:33;;;;;;;11.25;4.50;;;22.90;99.90;;;;;;4979113;28;20023;-65
2022/06/15 05:49:01;;;;;;;11.60;4.57;;;22.70;99.90;;;;;;4975359;28;20046;-64
2022/06/15 05:51:27;;;;;;;9.02;4.30;;;23.00;99.90;;;;;;4982268;28;20546;-64
2022/06/15 05:53:54;;;;;;;9.77;4.03;;;22.80;99.90;;;;;;4985010;28;20054;-64
2022/06/15 05:56:20;;;;;;;11.60;3.90;;;23.00;99.90;;;;;;4981732;28;20050;-65
2022/06/15 05:58:47;;;;;;;11.07;3.75;;;23.00;99.90;;;;;;4983728;28;20031;-65
2022/06/15 06:01:34;;;;;;;10.68;4.00;;;23.60;99.90;;;;;;4984309;28;20023;-64
2022/06/15 06:04:00;;;;;;;9.02;3.85;;;23.60;99.90;;;;;;4989521;28;20072;-64
2022/06/15 06:06:28;;;;;;;9.02;3.55;;;23.70;99.90;;;;;;4986746;28;20518;-65
2022/06/15 06:08:54;;;;;;;8.48;3.45;;;24.20;99.90;;;;;;4987611;28;20506;-65
2022/06/15 06:11:21;;;;;;;7.82;3.85;;;24.80;99.90;;;;;;4990142;28;20442;-65
2022/06/15 06:13:47;;;;;;;9.13;3.53;;;24.90;99.90;;;;;;4992021;28;20042;-65
2022/06/15 06:16:13;;;;;;;11.07;3.58;;;26.30;99.90;;;;;;4991349;28;20403;-64
2022/06/15 06:18:38;;;;;;;8.55;3.25;;;26.60;99.90;;;;;;4988922;28;20046;-64
2022/06/15 06:21:05;;;;;;;11.65;3.58;;;26.40;99.90;;;;;;4991672;28;20022;-65
2022/06/15 06:23:33;;;;;;;11.40;3.50;;;27.80;99.90;;;;;;4987748;28;20129;-63
2022/06/15 06:25:58;;;;;;;11.10;3.20;;;26.90;99.90;;;;;;4992482;28;20030;-65
2022/06/15 06:28:38;;;;;;;7.20;3.00;;;26.80;99.90;;;;;;4993941;28;20030;-64
2022/06/15 06:31:05;;;;;;;10.77;3.33;;;26.50;99.90;;;;;;4993253;28;20029;-64
2022/06/15 06:33:33;;;;;;;11.95;2.92;;;27.30;99.90;;;;;;4991074;28;20030;-64
2022/06/15 06:36:03;;;;;;;7.60;2.72;;;27.70;99.90;;;;;;4991393;28;20034;-64
2022/06/15 06:38:29;;;;;;;7.18;3.17;;;27.20;99.90;;;;;;4990672;28;20057;-64
2022/06/15 06:40:56;;;;;;;10.85;3.38;;;29.30;99.90;;;;;;4990964;28;20027;-64
2022/06/15 06:43:22;;;;;;;7.95;3.33;;;28.50;99.90;;;;;;4993247;28;20033;-63
2022/06/15 06:45:49;;;;;;;8.55;3.45;;;28.00;99.90;;;;;;4991571;28;20026;-64
2022/06/15 06:48:15;;;;;;;8.13;3.15;;;28.30;99.90;;;;;;4991010;28;20029;-64
2022/06/15 06:50:41;;;;;;;9.52;3.00;;;28.20;99.90;;;;;;4991044;28;20386;-64
2022/06/15 06:53:09;;;;;;;9.75;3.05;;;28.80;99.90;;;;;;4990193;28;20019;-63
2022/06/15 06:55:35;;;;;;;8.65;2.80;;;28.60;99.90;;;;;;4993497;28;20054;-63
2022/06/15 06:58:01;;;;;;;8.80;3.38;;;28.40;99.90;;;;;;4992369;28;20023;-63
2022/06/15 07:00:29;;;;;;;7.20;3.05;;;30.10;99.90;;;;;;4990446;28;20133;-64
2022/06/15 07:02:55;;;;;;;9.85;2.90;;;30.00;99.90;;;;;;4990660;28;20038;-63
2022/06/15 07:05:21;;;;;;;7.78;3.17;;;30.30;99.90;;;;;;4990675;28;20403;-63
2022/06/15 07:07:47;;;;;;;6.30;2.80;;;30.90;99.90;;;;;;4990958;28;20062;-63
2022/06/15 07:10:14;;;;;;;6.53;2.65;;;31.70;99.90;;;;;;4993992;28;20026;-63
2022/06/15 07:12:42;;;;;;;6.18;2.83;;;31.40;99.70;;;;;;4990492;28;20057;-63
2022/06/15 07:15:09;;;;;;;8.23;2.55;;;31.30;99.90;;;;;;4987668;28;20046;-64
2022/06/15 07:17:35;;;;;;;8.70;3.00;;;32.20;97.70;;;;;;4990225;28;20058;-63
2022/06/15 07:20:01;;;;;;;5.45;2.55;;;31.70;98.00;;;;;;4990325;28;20031;-63
2022/06/15 07:22:27;;;;;;;6.40;2.72;;;32.10;97.10;;;;;;4991614;28;20030;-64
2022/06/15 07:24:53;;;;;;;8.32;2.75;;;31.90;96.60;;;;;;4993281;28;20038;-63
2022/06/15 07:27:19;;;;;;;6.50;2.90;;;33.60;96.50;;;;;;4990257;28;20022;-63
2022/06/15 07:29:46;;;;;;;4.93;2.55;;;33.50;94.40;;;;;;4990198;28;20499;-64
2022/06/15 07:32:13;;;;;;;7.00;2.88;;;32.90;95.50;;;;;;4989839;28;20030;-63
2022/06/15 07:34:39;;;;;;;7.65;3.28;;;33.20;95.20;;;;;;4991999;28;20042;-63
2022/06/15 07:37:05;;;;;;;6.95;2.72;;;31.50;96.30;;;;;;4992264;28;20520;-63
2022/06/15 07:39:31;;;;;;;7.15;2.67;;;32.70;95.80;;;;;;4990350;28;20485;-63
2022/06/15 07:41:57;;;;;;;6.28;2.40;;;33.90;94.80;;;;;;4989873;28;20121;-63
2022/06/15 07:44:24;;;;;;;6.60;2.80;;;35.60;93.50;;;;;;4989872;28;20113;-63
2022/06/15 07:49:54;;;;;;;6.35;2.60;;;34.50;92.40;;;;;;4974967;28;20031;-63
2022/06/15 07:49:54;;;;;;;6.22;2.47;;;34.40;93.80;;;;;;4990386;28;20483;-63
2022/06/15 07:52:22;;;;;;;5.07;2.53;;;34.70;92.10;;;;;;4990118;28;20118;-63
2022/06/15 07:54:49;;;;;;;5.78;2.75;;;34.60;91.40;;;;;;4990148;28;20054;-63
2022/06/15 07:57:15;;;;;;;7.40;2.50;;;35.70;91.70;;;;;;4989761;28;20069;-64
2022/06/15 07:59:41;;;;;;;6.65;2.85;;;36.30;90.00;;;;;;4989830;28;20030;-63
2022/06/15 08:02:08;;;;;;;5.03;2.47;;;35.90;89.30;;;;;;4988361;28;20030;-63
2022/06/15 08:04:34;;;;;;;5.88;2.42;;;35.10;90.50;;;;;;4991494;28;20046;-63
2022/06/15 08:07:00;;;;;;;4.50;2.17;;;34.50;89.00;;;;;;4990788;28;20110;-63
2022/06/15 08:09:26;;;;;;;8.27;2.60;;;34.60;89.20;;;;;;4989210;28;20044;-63
2022/06/15 08:14:41;;;;;;;7.75;2.53;;;37.40;88.40;;;;;;4989663;28;20168;-63
2022/06/15 08:17:11;;;;;;;6.18;2.35;;;38.50;84.40;;;;;;4989163;28;20033;-63
2022/06/15 08:19:41;;;;;;;6.97;2.20;;;38.10;84.10;;;;;;4990978;28;20097;-63
2022/06/15 08:22:10;;;;;;;6.78;2.05;;;38.70;81.40;;;;;;4992086;28;20026;-64
2022/06/15 08:24:36;;;;;;;5.35;2.47;;;39.20;80.40;;;;;;4989038;28;20277;-63
2022/06/15 08:27:03;;;;;;;4.93;2.65;;;37.30;80.20;;;;;;4989075;28;20026;-63
2022/06/15 08:29:29;;;;;;;6.80;2.22;;;38.20;80.90;;;;;;4988832;28;20045;-63
2022/06/15 08:31:57;;;;;;;10.00;2.63;;;37.00;82.00;;;;;;4989075;28;20395;-63
2022/06/15 08:34:24;;;;;;;5.32;2.38;;;36.10;82.40;;;;;;4991854;28;20088;-63
2022/06/15 08:36:50;;;;;;;7.82;2.50;;;36.50;80.60;;;;;;4990329;28;20022;-63
2022/06/15 08:39:15;;;;;;;5.18;2.50;;;38.70;79.70;;;;;;4988743;28;20042;-63
2022/06/15 08:41:46;;;;;;;4.38;2.33;;;39.60;79.30;;;;;;4988755;28;20022;-63
2022/06/15 08:44:24;;;;;;;6.10;2.38;;;38.70;77.00;;;;;;4988775;28;20038;-64
2022/06/15 08:47:08;;;;;;;6.30;2.20;;;38.70;75.20;;;;;;4972423;28;20047;-63
2022/06/15 08:49:58;;;;;;;4.13;2.40;;;39.60;77.00;;;;;;4988851;28;20041;-64
2022/06/15 08:52:40;;;;;;;4.63;2.20;;;38.40;75.20;;;;;;4988572;28;20038;-64
2022/06/15 08:55:36;;;;;;;4.15;2.40;;;38.30;76.30;;;;;;4990730;28;20046;-64
2022/06/15 08:58:11;;;;;;;4.20;2.30;;;39.10;74.60;;;;;;4975909;28;20081;-63
2022/06/15 09:00:39;;;;;;;7.07;2.50;;;40.00;72.50;;;;;;4988498;28;20077;-64
2022/06/15 09:03:19;;;;;;;7.63;2.50;;;41.10;74.20;;;;;;4988010;28;20065;-63
2022/06/15 09:06:06;;;;;;;7.95;2.63;;;39.20;71.90;;;;;;4988358;28;20026;-64
2022/06/15 09:08:41;;;;;;;2.83;2.03;;;39.80;73.40;;;;;;4988610;28;20038;-64
2022/06/15 09:11:07;;;;;;;6.38;2.35;;;42.50;69.90;;;;;;4988518;28;20427;-63
2022/06/15 09:13:44;;;;;;;5.50;2.60;;;40.70;71.10;;;;;;4990972;28;20034;-63
2022/06/15 09:16:22;;;;;;;5.30;2.25;;;38.60;74.30;;;;;;4991102;28;20542;-63
2022/06/15 09:19:02;;;;;;;7.00;2.45;;;39.70;75.20;;;;;;4990507;28;20516;-63
2022/06/15 09:21:37;;;;;;;5.88;2.50;;;39.10;73.80;;;;;;4988319;28;20577;-63
2022/06/15 09:24:16;;;;;;;4.20;2.35;;;40.10;70.30;;;;;;4988241;28;20470;-63
2022/06/15 09:26:50;;;;;;;4.18;2.00;;;41.20;70.60;;;;;;4988239;28;20026;-63
2022/06/15 09:29:22;;;;;;;6.50;2.38;;;43.90;68.10;;;;;;4988734;28;20355;-63
2022/06/15 09:31:51;;;;;;;5.68;2.20;;;41.50;69.00;;;;;;4988407;28;20015;-63
2022/06/15 09:34:24;;;;;;;5.18;2.30;;;41.40;70.50;;;;;;4992141;28;20034;-63
2022/06/15 09:36:54;;;;;;;7.32;2.35;;;41.90;70.80;;;;;;4988993;28;20033;-64
2022/06/15 09:39:20;;;;;;;5.57;2.30;;;42.50;69.10;;;;;;4988036;28;20061;-64
2022/06/15 09:41:49;;;;;;;4.50;2.17;;;42.40;66.80;;;;;;4986722;28;20030;-63
2022/06/15 09:44:36;;;;;;;6.38;2.30;;;41.90;68.90;;;;;;4988092;28;20132;-63
2022/06/15 09:47:22;;;;;;;6.53;2.33;;;40.60;67.80;;;;;;4978120;28;20398;-63
2022/06/15 09:49:54;;;;;;;4.40;2.38;;;41.50;68.60;;;;;;4993304;28;20165;-63
2022/06/15 09:52:44;;;;;;;5.07;2.13;;;43.50;69.80;;;;;;4992343;28;20439;-63
2022/06/15 09:55:34;;;;;;;6.43;2.20;;;42.60;69.40;;;;;;4994920;28;20053;-63
2022/06/15 09:58:02;;;;;;;4.65;2.20;;;41.20;71.20;;;;;;4995299;28;20080;-63
2022/06/15 10:00:29;;;;;;;6.10;2.30;;;41.30;71.70;;;;;;4991533;28;20101;-63
2022/06/15 10:03:01;;;;;;;4.05;2.08;;;40.80;69.20;;;;;;4991926;28;20022;-63
2022/06/15 10:05:32;;;;;;;6.50;2.22;;;39.30;68.80;;;;;;4991646;28;20038;-63
2022/06/15 10:08:01;;;;;;;4.82;2.00;;;37.50;72.20;;;;;;4991853;28;20031;-63
2022/06/15 10:10:40;;;;;;;5.32;2.22;;;37.20;73.10;;;;;;4994160;28;20471;-63
2022/06/15 10:13:17;;;;;;;4.22;2.38;;;40.60;73.80;;;;;;4993842;28;20022;-63
2022/06/15 10:15:43;;;;;;;6.18;2.53;;;41.20;70.20;;;;;;4991161;28;20035;-63
2022/06/15 10:18:33;;;;;;;6.18;2.45;;;41.40;68.70;;;;;;4991798;28;20109;-63
2022/06/15 10:21:07;;;;;;;7.07;2.20;;;36.70;73.00;;;;;;4991701;28;20037;-63
2022/06/15 10:23:41;;;;;;;5.50;2.40;;;39.20;74.90;;;;;;4991380;28;20042;-63
2022/06/15 10:26:27;;;;;;;3.92;2.30;;;39.90;71.80;;;;;;4991360;28;20106;-63
2022/06/15 10:28:54;;;;;;;8.48;2.30;;;42.20;70.80;;;;;;4977455;28;20525;-63
2022/06/15 10:31:32;;;;;;;4.45;2.40;;;38.50;70.70;;;;;;4995379;28;20026;-63
2022/06/15 10:34:16;;;;;;;4.70;2.08;;;39.50;70.80;;;;;;4992355;28;20391;-64
2022/06/15 10:36:42;;;;;;;7.40;2.30;;;39.30;73.00;;;;;;4991136;28;20491;-63
2022/06/15 10:39:40;;;;;;;4.47;2.47;;;41.70;70.80;;;;;;4991125;28;20061;-63
2022/06/15 10:42:37;;;;;;;5.53;2.90;;;37.20;71.70;;;;;;4990760;28;20025;-63
2022/06/15 10:45:30;;;;;;;7.55;2.47;;;37.00;75.60;;;;;;4986152;28;20050;-63
2022/06/15 10:48:20;;;;;;;4.80;2.67;;;39.60;71.50;;;;;;4991067;28;20026;-63
2022/06/15 10:51:09;;;;;;;5.72;2.50;;;38.10;76.00;;;;;;4983387;28;20074;-64
2022/06/15 10:53:47;;;;;;;10.45;2.60;;;38.40;75.90;;;;;;4990648;28;20041;-63
2022/06/15 11:02:06;;;;;;;4.97;2.25;;;38.20;73.10;;;;;;4978553;28;20033;-63
2022/06/15 11:02:50;;;;;;;4.80;2.55;;;38.80;75.00;;;;;;4979034;28;20133;-63
2022/06/15 11:05:21;;;;;;;6.82;2.70;;;38.80;74.60;;;;;;4962128;28;20414;-63
2022/06/15 11:08:01;;;;;;;6.80;2.78;;;36.50;74.80;;;;;;4992444;28;20041;-63
2022/06/15 11:10:43;;;;;;;6.68;2.38;;;37.70;76.60;;;;;;4990385;28;20053;-63
2022/06/15 11:13:34;;;;;;;7.93;2.67;;;39.60;74.50;;;;;;4992782;28;20033;-63
2022/06/15 11:19:09;;;;;;;4.93;2.63;;;40.10;71.60;;;;;;4992895;28;20033;-63
2022/06/15 11:21:58;;;;;;;5.45;2.80;;;39.70;72.60;;;;;;4990368;28;20034;-63
2022/06/15 11:24:35;;;;;;;5.53;2.72;;;39.70;72.30;;;;;;4980807;28;20051;-63
2022/06/15 11:27:13;;;;;;;5.78;2.50;;;39.60;75.00;;;;;;4990507;28;20026;-63
2022/06/15 11:29:48;;;;;;;5.60;2.70;;;39.00;73.50;;;;;;4989598;28;20049;-63
2022/06/15 11:32:39;;;;;;;6.85;2.90;;;37.50;75.60;;;;;;4988527;28;20411;-63
2022/06/15 11:35:14;;;;;;;4.53;2.58;;;37.20;78.40;;;;;;4976868;28;20040;-63
2022/06/15 11:38:02;;;;;;;9.63;2.70;;;35.90;78.10;;;;;;4991468;28;20026;-64
2022/06/15 11:40:51;;;;;;;5.03;2.60;;;36.40;79.60;;;;;;4989665;28;20559;-63
2022/06/15 11:43:36;;;;;;;11.18;3.45;;;38.50;77.60;;;;;;4993364;28;20054;-63
2022/06/15 11:46:43;;;;;;;7.00;2.72;;;38.20;74.00;;;;;;4991726;28;20030;-63
2022/06/15 11:49:39;;;;;;;8.98;2.63;;;38.80;75.60;;;;;;4991897;28;20066;-63
2022/06/15 11:52:18;;;;;;;7.10;2.60;;;39.00;75.20;;;;;;4991981;28;20034;-63
2022/06/15 11:54:53;;;;;;;5.60;2.58;;;39.20;75.90;;;;;;4989177;28;20158;-63
2022/06/15 11:57:37;;;;;;;5.80;2.53;;;37.50;75.80;;;;;;4989441;28;20034;-63
2022/06/15 12:00:34;;;;;;;8.18;2.58;;;36.30;79.80;;;;;;4989735;28;20037;-63
2022/06/15 12:03:37;;;;;;;8.60;2.53;;;38.60;76.10;;;;;;4989277;28;20049;-64
2022/06/15 12:06:43;;;;;;;7.90;2.67;;;37.60;78.10;;;;;;4989562;28;20113;-63
2022/06/15 12:09:21;;;;;;;6.85;2.33;;;37.20;78.50;;;;;;4978423;28;20042;-63
2022/06/15 12:14:57;;;;;;;5.88;2.75;;;37.20;78.10;;;;;;4989443;28;20391;-63
2022/06/15 12:17:34;;;;;;;8.13;2.70;;;38.40;77.20;;;;;;4989903;28;20113;-63
2022/06/15 12:20:06;;;;;;;8.02;2.90;;;37.80;78.60;;;;;;4974686;28;20034;-63
2022/06/15 12:22:52;;;;;;;6.22;2.92;;;37.90;77.30;;;;;;4991553;28;20044;-63
2022/06/15 12:25:33;;;;;;;9.43;2.70;;;35.90;81.00;;;;;;4993058;28;20149;-63
2022/06/15 12:28:07;;;;;;;8.85;3.00;;;35.90;79.20;;;;;;4992307;28;20034;-63
2022/06/15 12:30:45;;;;;;;6.10;2.67;;;35.90;79.10;;;;;;4989091;28;20390;-63
2022/06/15 12:33:28;;;;;;;7.93;3.38;;;37.30;78.70;;;;;;4988766;28;20018;-63
2022/06/15 12:36:09;;;;;;;6.50;3.00;;;37.40;78.00;;;;;;4988987;28;20015;-63
2022/06/15 12:39:18;;;;;;;11.10;3.20;;;36.40;78.40;;;;;;4988925;28;20030;-63
2022/06/15 12:44:44;;;;;;;6.53;3.05;;;36.70;78.10;;;;;;4931405;29;20142;-63
2022/06/15 12:47:14;;;;;;;9.88;2.83;;;35.70;80.30;;;;;;4932045;29;20032;-63
2022/06/15 12:50:02;;;;;;;8.50;2.90;;;36.60;79.00;;;;;;4931405;29;20484;-63
2022/06/15 12:52:40;;;;;;;5.93;3.05;;;36.30;79.50;;;;;;4928754;29;20035;-63
2022/06/15 12:55:18;;;;;;;7.88;3.08;;;36.10;78.50;;;;;;4932508;29;20052;-63
2022/06/15 12:58:22;;;;;;;4.93;2.70;;;36.60;77.30;;;;;;4931248;29;20060;-63
2022/06/15 13:00:52;;;;;;;;;;;36.50;80.10;;;;;;4932067;29;20042;-64
2022/06/15 13:04:02;;;;;;;6.25;2.65;;;36.40;78.90;;;;;;4931351;29;19919;-63
2022/06/15 13:06:34;;;;;;;11.73;2.97;;;36.40;81.70;;;;;;4931051;29;20126;-63
2022/06/15 13:08:59;;;;;;;6.85;2.88;;;36.00;81.00;;;;;;4930589;29;20032;-63
2022/06/15 13:11:27;;;;;;;6.20;2.75;;;35.90;80.70;;;;;;4931331;29;20127;-63
2022/06/15 13:13:54;;;;;;;6.55;2.67;;;35.90;81.40;;;;;;4916475;29;20039;-63
2022/06/15 13:16:39;;;;;;;11.48;2.90;;;36.30;80.70;;;;;;4928434;29;20035;-63
2022/06/15 13:19:08;;;;;;;10.13;2.90;;;36.30;80.50;;;;;;4973474;28;20038;-64
2022/06/15 13:21:55;;;;;;;5.93;2.83;;;35.90;82.30;;;;;;4987825;28;20029;-64
2022/06/15 13:24:22;;;;;;;6.82;2.85;;;35.90;81.60;;;;;;4987808;28;20045;-63
2022/06/15 13:26:54;;;;;;;9.55;2.97;;;36.20;79.00;;;;;;4988297;28;20023;-64
2022/06/15 13:29:24;;;;;;;6.90;2.72;;;35.90;80.50;;;;;;4988210;28;20053;-63
2022/06/15 13:31:58;;;;;;;6.38;2.63;;;35.50;80.90;;;;;;4988837;28;20042;-63